Osg Courageous — WDF7122 — position and weather

sailwx.info

Track history (hours):
 
Tides and Currents Weather Stations Pressure Air Temp Water Temp Dewpoint Dewpoint Depression Visibility Wind Speed Wind Dir Waves Ship Positions

Osg Courageous

Owner: OSG Ship Management, Inc, Tampa, FL. More information available from US FCC via Universal Licensing System and Coast Guard Vessel Documentation Center.

Last reported at 2014-Dec-21 02:30 UTC. Time now 2014-Dec-22 06:23 UTC.
Position N 29°58' W 090°03'.

Length 187 m; draft 7 m.

Type: Tanker. MMSI: 367481310.

Date/timePositionNaut miles runAvg speedWind from/ knotsBaromVisibWave heightAir tempDewpointWater temp
2014-Dec-21 02:30N 29°58' W 090°03'5 0.1
2014-Dec-19 08:33N 29°57' W 090°08'6 5.7
2014-Dec-19 07:33N 29°57' W 090°02'  
2014-Dec-15 22:34N 25°43' W 080°02'1110.8
2014-Dec-15 21:33N 25°54' W 080°02'1111.4
2014-Dec-15 20:34N 26°05' W 080°03'1111.2
2014-Dec-15 19:33N 26°16' W 080°02'1111.5
2014-Dec-15 18:33N 26°28' W 080°00'1111.2
2014-Dec-15 17:33N 26°39' W 079°59'1010.1
2014-Dec-15 16:33N 26°49' W 079°59'9 9.1
2014-Dec-15 15:33N 26°58' W 079°59'  
Track history (hours):
 
Tides and Currents Weather Stations Pressure Air Temp Water Temp Dewpoint Dewpoint Depression Visibility Wind Speed Wind Dir Waves Ship Positions

Osg Courageous

Owner: OSG Ship Management, Inc, Tampa, FL. More information available from US FCC via Universal Licensing System and Coast Guard Vessel Documentation Center.

Last reported at 2014-Dec-21 02:30 UTC. Time now 2014-Dec-22 06:23 UTC.
Position N 29°58' W 090°03'.

Length 187 m; draft 7 m.

Type: Tanker. MMSI: 367481310.

Date/timePositionNaut miles runAvg speedWind from/ knotsBaromVisibWave heightAir tempDewpointWater temp
2014-Dec-21 02:30N 29°58' W 090°03'5 0.1
2014-Dec-19 08:33N 29°57' W 090°08'6 5.7
2014-Dec-19 07:33N 29°57' W 090°02'  
2014-Dec-15 22:34N 25°43' W 080°02'1110.8
2014-Dec-15 21:33N 25°54' W 080°02'1111.4
2014-Dec-15 20:34N 26°05' W 080°03'1111.2
2014-Dec-15 19:33N 26°16' W 080°02'1111.5
2014-Dec-15 18:33N 26°28' W 080°00'1111.2
2014-Dec-15 17:33N 26°39' W 079°59'1010.1
2014-Dec-15 16:33N 26°49' W 079°59'9 9.1
2014-Dec-15 15:33N 26°58' W 079°59'  

Dump ship's entire track history